createdAt,value
2022-08-22T00:00:45.577Z,16.93
2022-08-22T00:02:57.282Z,17.57
2022-08-22T00:03:06.939Z,17.12
2022-08-22T00:03:23.662Z,16.90
2022-08-22T00:06:03.217Z,16.87
2022-08-22T00:08:49.600Z,16.84
2022-08-22T00:11:44.631Z,16.84
2022-08-22T00:14:38.632Z,16.80
2022-08-22T00:17:36.315Z,16.79
2022-08-22T00:20:28.020Z,16.80
2022-08-22T00:23:08.576Z,16.80
2022-08-22T00:25:47.673Z,16.84
2022-08-22T00:28:17.354Z,16.85
2022-08-22T00:31:28.562Z,16.85
2022-08-22T00:34:03.009Z,16.81
2022-08-22T00:36:47.877Z,16.81
2022-08-22T00:39:28.827Z,16.80
2022-08-22T00:42:29.562Z,16.79
2022-08-22T00:45:31.552Z,16.76
2022-08-22T00:48:27.185Z,16.76
2022-08-22T00:51:01.515Z,16.76
2022-08-22T00:53:51.052Z,16.76
2022-08-22T00:56:37.648Z,16.73
2022-08-22T00:59:51.097Z,16.73
2022-08-22T01:02:32.006Z,16.70
2022-08-22T01:05:11.867Z,16.70
2022-08-22T01:08:12.221Z,16.72
2022-08-22T01:11:13.435Z,16.70
2022-08-22T01:13:44.428Z,16.70
2022-08-22T01:16:30.908Z,16.73
2022-08-22T01:19:32.704Z,16.73
2022-08-22T01:22:18.339Z,16.74
2022-08-22T01:25:40.782Z,16.77
2022-08-22T01:28:54.710Z,16.76
2022-08-22T01:31:42.401Z,16.74
2022-08-22T01:34:56.800Z,16.77
2022-08-22T01:38:01.333Z,16.76
2022-08-22T01:40:47.610Z,16.79
2022-08-22T01:43:59.636Z,16.74
2022-08-22T01:46:31.886Z,16.73
2022-08-22T01:49:18.329Z,16.69
2022-08-22T01:51:53.331Z,16.67
2022-08-22T01:54:36.676Z,16.60
2022-08-22T01:57:08.803Z,16.60
2022-08-22T01:59:42.991Z,16.57
2022-08-22T02:02:32.557Z,16.55
2022-08-22T02:05:23.720Z,16.51
2022-08-22T02:08:19.319Z,16.53
2022-08-22T02:11:04.379Z,16.49
2022-08-22T02:13:45.999Z,16.48
2022-08-22T02:16:18.702Z,16.49
2022-08-22T02:18:57.319Z,16.46
2022-08-22T02:21:44.888Z,16.46
2022-08-22T02:24:25.801Z,16.45
2022-08-22T02:27:11.875Z,16.42
2022-08-22T02:29:48.341Z,16.39
2022-08-22T02:32:25.259Z,16.38
2022-08-22T02:35:03.776Z,16.41
2022-08-22T02:37:37.748Z,16.36
2022-08-22T02:40:09.252Z,16.35
2022-08-22T02:42:52.343Z,16.36
2022-08-22T02:45:38.857Z,16.35
2022-08-22T02:48:28.587Z,16.32
2022-08-22T02:50:59.364Z,16.29
2022-08-22T02:54:04.492Z,16.28
2022-08-22T02:56:46.375Z,16.26
2022-08-22T02:59:20.300Z,16.26
2022-08-22T03:01:49.759Z,16.21
2022-08-22T03:04:21.478Z,16.17
2022-08-22T03:07:22.148Z,16.17
2022-08-22T03:10:22.969Z,16.15
2022-08-22T03:13:08.240Z,16.14
2022-08-22T03:15:48.512Z,16.15
2022-08-22T03:18:30.255Z,16.14
2022-08-22T03:21:11.712Z,16.15
2022-08-22T03:23:56.934Z,16.18
2022-08-22T03:26:51.820Z,16.17
2022-08-22T03:29:46.301Z,16.12
2022-08-22T03:32:21.459Z,16.11
2022-08-22T03:34:57.125Z,16.08
2022-08-22T03:37:44.113Z,16.12
2022-08-22T03:40:45.943Z,16.11
2022-08-22T03:43:51.683Z,16.10
2022-08-22T03:46:22.682Z,16.11
2022-08-22T03:49:11.630Z,16.12
2022-08-22T03:51:45.066Z,16.14
2022-08-22T03:54:44.432Z,16.17
2022-08-22T03:57:40.077Z,16.22
2022-08-22T04:00:39.183Z,16.24
2022-08-22T04:03:46.491Z,16.21
2022-08-22T04:06:44.853Z,16.21
2022-08-22T04:09:42.857Z,16.18
2022-08-22T04:12:20.028Z,16.15
2022-08-22T04:14:56.287Z,16.14
2022-08-22T04:17:39.105Z,16.14
2022-08-22T04:20:25.607Z,16.11
2022-08-22T04:23:12.697Z,16.08
2022-08-22T04:25:57.870Z,16.04
2022-08-22T04:28:43.418Z,16.02
2022-08-22T04:31:21.508Z,16.04
2022-08-22T04:34:04.849Z,16.01
2022-08-22T04:36:46.018Z,16.07
2022-08-22T04:39:25.957Z,16.08
2022-08-22T04:42:32.382Z,16.15
2022-08-22T04:45:26.562Z,16.24
2022-08-22T04:48:06.976Z,16.26
2022-08-22T04:51:05.728Z,16.30
2022-08-22T04:54:02.643Z,16.30
2022-08-22T04:56:50.133Z,16.26
2022-08-22T04:59:21.984Z,16.24
2022-08-22T05:02:07.155Z,16.17
2022-08-22T05:04:40.423Z,16.17
2022-08-22T05:07:18.772Z,16.18
2022-08-22T05:09:54.251Z,16.17
2022-08-22T05:12:31.768Z,16.18
2022-08-22T05:15:07.230Z,16.21
2022-08-22T05:17:40.489Z,16.21
2022-08-22T05:20:14.076Z,16.25
2022-08-22T05:22:48.387Z,16.35
2022-08-22T05:25:21.532Z,16.97
2022-08-22T05:27:56.426Z,17.42
2022-08-22T05:30:31.245Z,18.00
2022-08-22T05:33:04.847Z,18.41
2022-08-22T05:35:44.970Z,18.96
2022-08-22T05:38:20.780Z,19.21
2022-08-22T05:40:57.592Z,18.94
2022-08-22T05:43:27.169Z,19.21
2022-08-22T05:45:58.391Z,19.54
2022-08-22T05:48:37.826Z,19.46
2022-08-22T05:51:18.858Z,19.66
2022-08-22T05:53:53.480Z,19.77
2022-08-22T05:56:34.438Z,20.00
2022-08-22T05:59:26.901Z,20.17
2022-08-22T06:02:00.191Z,19.65
2022-08-22T06:04:31.692Z,19.61
2022-08-22T06:07:09.659Z,19.10
2022-08-22T06:10:22.987Z,18.08
2022-08-22T06:13:01.698Z,17.61
2022-08-22T06:16:11.664Z,17.25
2022-08-22T06:18:42.343Z,17.01
2022-08-22T06:21:22.266Z,16.88
2022-08-22T06:23:56.725Z,16.85
2022-08-22T06:26:30.904Z,16.81
2022-08-22T06:29:01.513Z,16.84
2022-08-22T06:31:32.215Z,16.95
2022-08-22T06:34:12.053Z,16.99
2022-08-22T06:36:44.312Z,17.03
2022-08-22T06:39:24.179Z,17.11
2022-08-22T06:42:05.950Z,17.21
2022-08-22T06:44:43.117Z,17.18
2022-08-22T06:47:17.404Z,17.27
2022-08-22T06:49:46.021Z,17.48
2022-08-22T06:52:21.216Z,17.80
2022-08-22T06:55:00.372Z,18.12
2022-08-22T06:57:48.539Z,18.59
2022-08-22T07:00:18.190Z,18.69
2022-08-22T07:03:12.075Z,18.84
2022-08-22T07:05:42.913Z,19.18
2022-08-22T07:08:19.418Z,19.58
2022-08-22T07:11:16.443Z,19.97
2022-08-22T07:13:54.872Z,20.59
2022-08-22T07:16:39.335Z,20.48
2022-08-22T07:19:09.365Z,20.55
2022-08-22T07:21:47.201Z,20.52
2022-08-22T07:24:20.678Z,20.68
2022-08-22T07:27:00.310Z,20.66
2022-08-22T07:29:54.076Z,20.38
2022-08-22T07:32:33.940Z,20.45
2022-08-22T07:35:28.860Z,20.49
2022-08-22T07:38:05.878Z,20.46
2022-08-22T07:40:55.012Z,20.44
2022-08-22T07:43:25.599Z,20.71
2022-08-22T07:46:16.467Z,20.86
2022-08-22T07:49:14.395Z,20.77
2022-08-22T07:52:08.325Z,20.97
2022-08-22T07:54:57.935Z,21.28
2022-08-22T07:58:01.572Z,21.15
2022-08-22T08:00:41.354Z,21.28
2022-08-22T08:03:10.170Z,21.71
2022-08-22T08:05:42.103Z,22.01
2022-08-22T08:08:28.297Z,22.30
2022-08-22T08:10:59.213Z,22.61
2022-08-22T08:13:35.329Z,23.16
2022-08-22T08:16:07.568Z,23.78
2022-08-22T08:18:37.272Z,23.75
2022-08-22T08:21:09.101Z,23.41
2022-08-22T08:23:46.460Z,22.79
2022-08-22T08:26:21.121Z,23.58
2022-08-22T08:28:52.089Z,23.62
2022-08-22T08:31:31.879Z,23.96
2022-08-22T08:34:07.715Z,24.21
2022-08-22T08:36:48.363Z,24.17
2022-08-22T08:39:36.827Z,23.75
2022-08-22T08:42:05.122Z,23.89
2022-08-22T08:44:37.457Z,23.55
2022-08-22T08:47:08.701Z,23.63
2022-08-22T08:49:59.911Z,23.79
2022-08-22T08:52:54.811Z,23.54
2022-08-22T08:55:54.265Z,23.57
2022-08-22T08:58:35.421Z,22.90
2022-08-22T09:01:29.753Z,23.38
2022-08-22T09:04:21.137Z,23.31
2022-08-22T09:07:19.725Z,23.57
2022-08-22T09:10:08.029Z,23.61
2022-08-22T09:12:56.443Z,23.03
2022-08-22T09:15:41.664Z,23.20
2022-08-22T09:18:24.593Z,23.00
2022-08-22T09:21:27.950Z,23.21
2022-08-22T09:24:46.667Z,23.48
2022-08-22T09:27:24.492Z,23.47
2022-08-22T09:30:02.399Z,23.66
2022-08-22T09:32:52.215Z,23.38
2022-08-22T09:35:46.453Z,23.76
2022-08-22T09:38:32.043Z,24.20
2022-08-22T09:41:47.179Z,24.21
2022-08-22T09:44:39.455Z,24.21
2022-08-22T09:47:32.859Z,24.18
2022-08-22T09:50:17.154Z,23.99
2022-08-22T09:53:07.809Z,24.02
2022-08-22T09:55:51.866Z,24.13
2022-08-22T09:58:25.684Z,23.86
2022-08-22T10:01:00.600Z,23.78
2022-08-22T10:04:00.630Z,23.93
2022-08-22T10:06:39.232Z,24.41
2022-08-22T10:09:24.206Z,24.35
2022-08-22T10:12:12.791Z,24.71
2022-08-22T10:15:15.162Z,25.03
2022-08-22T10:17:57.914Z,24.93
2022-08-22T10:20:32.289Z,25.23
2022-08-22T10:23:18.413Z,25.43
2022-08-22T10:25:55.170Z,25.61
2022-08-22T10:28:39.416Z,25.43
2022-08-22T10:31:13.453Z,25.26
2022-08-22T10:34:03.958Z,24.80
2022-08-22T10:37:10.335Z,24.92
2022-08-22T10:39:57.856Z,25.31
2022-08-22T10:42:40.192Z,25.43
2022-08-22T10:45:36.048Z,25.30
2022-08-22T10:48:11.515Z,25.35
2022-08-22T10:50:53.070Z,25.47
2022-08-22T10:53:37.135Z,25.84
2022-08-22T10:56:11.659Z,25.41
2022-08-22T10:58:51.326Z,25.16
2022-08-22T11:01:37.439Z,25.12
2022-08-22T11:04:28.354Z,24.93
2022-08-22T11:07:14.395Z,25.09
2022-08-22T11:09:44.441Z,25.45
2022-08-22T11:12:20.853Z,25.71
2022-08-22T11:15:28.312Z,25.45
2022-08-22T11:18:33.765Z,25.62
2022-08-22T11:21:11.050Z,25.07
2022-08-22T11:24:34.630Z,25.00
2022-08-22T11:27:20.889Z,25.05
2022-08-22T11:30:36.353Z,25.58
2022-08-22T11:33:46.353Z,25.96
2022-08-22T11:36:30.834Z,25.74
2022-08-22T11:39:32.615Z,26.10
2022-08-22T11:42:26.038Z,26.22
2022-08-22T11:45:01.004Z,26.36
2022-08-22T11:47:39.987Z,26.58
2022-08-22T11:50:29.490Z,26.30
2022-08-22T11:53:15.588Z,26.44
2022-08-22T11:56:14.076Z,26.71
2022-08-22T11:59:01.670Z,26.67
2022-08-22T12:01:40.972Z,26.43
2022-08-22T12:04:17.443Z,26.39
2022-08-22T12:06:51.619Z,26.40
2022-08-22T12:09:57.940Z,26.33
2022-08-22T12:12:45.743Z,26.17
2022-08-22T12:15:26.505Z,26.02
2022-08-22T12:18:09.218Z,25.92
2022-08-22T12:21:05.008Z,26.13
2022-08-22T12:24:19.406Z,26.07
2022-08-22T12:27:14.631Z,26.03
2022-08-22T12:30:35.613Z,26.44
2022-08-22T12:33:10.034Z,26.27
2022-08-22T12:36:06.484Z,26.19
2022-08-22T12:39:02.132Z,26.03
2022-08-22T12:41:48.625Z,26.17
2022-08-22T12:44:31.417Z,25.98
2022-08-22T12:47:50.573Z,26.10
2022-08-22T12:50:39.640Z,26.55
2022-08-22T12:53:20.098Z,26.79
2022-08-22T12:56:00.992Z,26.81
2022-08-22T12:59:10.544Z,26.91
2022-08-22T13:01:49.176Z,27.23
2022-08-22T13:04:33.268Z,27.02
2022-08-22T13:07:16.186Z,27.16
2022-08-22T13:09:55.121Z,27.22
2022-08-22T13:12:59.465Z,27.12
2022-08-22T13:15:36.091Z,27.13
2022-08-22T13:18:29.366Z,26.99
2022-08-22T13:21:04.415Z,26.96
2022-08-22T13:23:48.524Z,27.00
2022-08-22T13:26:33.163Z,27.22
2022-08-22T13:29:39.389Z,26.77
2022-08-22T13:32:20.695Z,26.48
2022-08-22T13:34:58.757Z,26.45
2022-08-22T13:37:41.184Z,26.34
2022-08-22T13:40:29.611Z,26.34
2022-08-22T13:43:11.238Z,26.32
2022-08-22T13:45:41.679Z,26.40
2022-08-22T13:48:13.026Z,26.45
2022-08-22T13:51:00.053Z,26.27
2022-08-22T13:53:49.361Z,26.02
2022-08-22T13:57:00.736Z,25.79
2022-08-22T13:59:51.827Z,25.88
2022-08-22T14:02:45.756Z,25.99
2022-08-22T14:05:23.966Z,26.06
2022-08-22T14:08:22.830Z,26.07
2022-08-22T14:11:06.763Z,26.13
2022-08-22T14:13:56.612Z,25.96
2022-08-22T14:16:34.323Z,26.03
2022-08-22T14:19:08.223Z,26.09
2022-08-22T14:21:40.920Z,25.93
2022-08-22T14:24:21.176Z,26.07
2022-08-22T14:27:07.941Z,26.23
2022-08-22T14:30:12.664Z,26.34
2022-08-22T14:32:49.687Z,26.24
2022-08-22T14:35:35.303Z,26.02
2022-08-22T14:38:39.403Z,25.92
2022-08-22T14:41:56.035Z,26.03
2022-08-22T14:44:39.308Z,26.06
2022-08-22T14:47:54.233Z,26.05
2022-08-22T14:50:59.039Z,26.10
2022-08-22T14:53:33.477Z,26.05
2022-08-22T14:56:11.309Z,26.09
2022-08-22T14:58:57.439Z,26.32
2022-08-22T15:01:29.936Z,26.33
2022-08-22T15:04:11.266Z,26.32
2022-08-22T15:06:47.846Z,26.40
2022-08-22T15:09:56.578Z,26.43
2022-08-22T15:12:40.448Z,26.36
2022-08-22T15:15:26.440Z,26.20
2022-08-22T15:17:54.623Z,26.32
2022-08-22T15:20:36.370Z,26.26
2022-08-22T15:23:20.503Z,26.26
2022-08-22T15:26:13.141Z,26.33
2022-08-22T15:28:53.245Z,26.16
2022-08-22T15:31:22.848Z,26.06
2022-08-22T15:33:52.005Z,25.95
2022-08-22T15:36:25.615Z,26.12
2022-08-22T15:39:15.826Z,26.19
2022-08-22T15:41:48.885Z,26.16
2022-08-22T15:44:33.075Z,26.37
2022-08-22T15:47:27.657Z,26.50
2022-08-22T15:50:05.501Z,26.51
2022-08-22T15:52:59.127Z,26.58
2022-08-22T15:55:34.446Z,26.57
2022-08-22T15:58:21.982Z,26.61
2022-08-22T16:01:19.263Z,26.51
2022-08-22T16:04:02.221Z,26.36
2022-08-22T16:06:46.844Z,26.29
2022-08-22T16:09:38.736Z,26.22
2022-08-22T16:12:24.562Z,26.22
2022-08-22T16:14:54.056Z,26.29
2022-08-22T16:17:30.706Z,26.13
2022-08-22T16:20:19.473Z,26.02
2022-08-22T16:23:10.152Z,25.89
2022-08-22T16:25:55.414Z,25.92
2022-08-22T16:28:57.862Z,25.89
2022-08-22T16:31:49.255Z,25.85
2022-08-22T16:34:17.032Z,25.69
2022-08-22T16:36:50.211Z,25.71
2022-08-22T16:39:23.901Z,25.72
2022-08-22T16:42:16.358Z,25.75
2022-08-22T16:44:48.536Z,25.69
2022-08-22T16:47:30.210Z,25.71
2022-08-22T16:50:04.687Z,25.84
2022-08-22T16:52:33.349Z,25.79
2022-08-22T16:55:30.353Z,25.67
2022-08-22T16:58:08.021Z,25.57
2022-08-22T17:01:10.974Z,25.48
2022-08-22T17:04:16.989Z,25.40
2022-08-22T17:07:08.025Z,25.27
2022-08-22T17:10:52.924Z,25.31
2022-08-22T17:13:35.655Z,25.23
2022-08-22T17:16:31.576Z,25.15
2022-08-22T17:19:28.737Z,25.12
2022-08-22T17:22:18.901Z,25.07
2022-08-22T17:24:58.227Z,25.07
2022-08-22T17:27:35.108Z,25.12
2022-08-22T17:30:27.063Z,25.12
2022-08-22T17:33:17.003Z,25.09
2022-08-22T17:36:02.980Z,25.06
2022-08-22T17:38:43.599Z,24.99
2022-08-22T17:41:29.179Z,24.97
2022-08-22T17:44:28.551Z,24.90
2022-08-22T17:47:11.534Z,24.82
2022-08-22T17:50:05.575Z,24.75
2022-08-22T17:52:51.055Z,24.67
2022-08-22T17:55:25.545Z,24.60
2022-08-22T17:58:13.100Z,24.54
2022-08-22T18:01:35.710Z,24.48
2022-08-22T18:04:10.648Z,24.40
2022-08-22T18:06:56.230Z,24.34
2022-08-22T18:09:47.664Z,24.30
2022-08-22T18:12:44.333Z,24.26
2022-08-22T18:15:28.906Z,24.18
2022-08-22T18:18:06.973Z,24.16
2022-08-22T18:21:01.029Z,24.13
2022-08-22T18:24:00.683Z,24.06
2022-08-22T18:26:28.659Z,23.96
2022-08-22T18:29:06.798Z,23.92
2022-08-22T18:31:46.385Z,23.88
2022-08-22T18:34:32.397Z,23.79
2022-08-22T18:37:35.811Z,23.73
2022-08-22T18:40:14.000Z,23.66
2022-08-22T18:42:51.809Z,23.58
2022-08-22T18:45:46.079Z,23.52
2022-08-22T18:48:34.528Z,23.47
2022-08-22T18:51:24.413Z,23.44
2022-08-22T18:54:04.894Z,23.40
2022-08-22T18:56:50.352Z,23.37
2022-08-22T18:59:55.118Z,23.33
2022-08-22T19:02:41.941Z,23.26
2022-08-22T19:05:13.820Z,23.17
2022-08-22T19:08:21.820Z,23.07
2022-08-22T19:11:38.264Z,22.93
2022-08-22T19:14:17.055Z,22.83
2022-08-22T19:17:16.805Z,22.71
2022-08-22T19:20:06.996Z,22.62
2022-08-22T19:22:36.844Z,22.52
2022-08-22T19:25:15.339Z,22.45
2022-08-22T19:27:54.576Z,22.41
2022-08-22T19:30:41.021Z,22.28
2022-08-22T19:33:38.708Z,22.22
2022-08-22T19:36:12.296Z,22.13
2022-08-22T19:39:08.871Z,22.10
2022-08-22T19:41:41.445Z,22.01
2022-08-22T19:44:12.705Z,21.94
2022-08-22T19:46:43.662Z,21.92
2022-08-22T19:49:29.466Z,21.80
2022-08-22T19:52:24.715Z,21.69
2022-08-22T19:55:18.020Z,21.59
2022-08-22T19:57:52.162Z,21.56
2022-08-22T20:00:23.411Z,21.48
2022-08-22T20:02:58.504Z,21.38
2022-08-22T20:05:41.732Z,21.28
2022-08-22T20:08:42.759Z,21.18
2022-08-22T20:11:38.906Z,21.07
2022-08-22T20:14:33.585Z,20.99
2022-08-22T20:17:32.949Z,20.99
2022-08-22T20:20:24.036Z,21.00
2022-08-22T20:23:12.245Z,20.99
2022-08-22T20:25:52.858Z,20.93
2022-08-22T20:28:44.451Z,20.91
2022-08-22T20:31:22.118Z,20.89
2022-08-22T20:33:57.559Z,20.87
2022-08-22T20:36:28.585Z,20.86
2022-08-22T20:39:10.858Z,20.80
2022-08-22T20:41:46.598Z,20.77
2022-08-22T20:44:31.668Z,20.79
2022-08-22T20:47:10.275Z,20.71
2022-08-22T20:49:45.757Z,20.65
2022-08-22T20:52:35.096Z,20.59
2022-08-22T20:55:02.984Z,20.56
2022-08-22T20:57:32.099Z,20.49
2022-08-22T21:00:11.637Z,20.48
2022-08-22T21:02:51.789Z,20.41
2022-08-22T21:05:23.998Z,20.37
2022-08-22T21:08:20.883Z,20.34
2022-08-22T21:11:32.924Z,20.25
2022-08-22T21:14:16.951Z,20.16
2022-08-22T21:16:44.956Z,20.17
2022-08-22T21:19:25.053Z,20.11
2022-08-22T21:21:55.649Z,20.11
2022-08-22T21:24:27.321Z,20.06
2022-08-22T21:27:03.392Z,20.06
2022-08-22T21:29:42.806Z,20.00
2022-08-22T21:32:13.690Z,19.90
2022-08-22T21:34:45.386Z,19.82
2022-08-22T21:37:16.847Z,19.77
2022-08-22T21:39:48.903Z,19.73
2022-08-22T21:42:36.543Z,19.67
2022-08-22T21:45:27.168Z,19.61
2022-08-22T21:47:55.554Z,19.56
2022-08-22T21:50:23.666Z,19.48
2022-08-22T21:52:54.448Z,19.42
2022-08-22T21:55:31.769Z,19.41
2022-08-22T21:58:35.750Z,19.41
2022-08-22T22:01:31.958Z,19.41
2022-08-22T22:04:00.925Z,19.36
2022-08-22T22:06:28.889Z,19.31
2022-08-22T22:08:56.794Z,19.27
2022-08-22T22:11:24.764Z,19.22
2022-08-22T22:13:53.137Z,19.14
2022-08-22T22:16:26.031Z,19.12
2022-08-22T22:18:54.280Z,19.12
2022-08-22T22:21:22.371Z,19.06
2022-08-22T22:23:50.680Z,18.99
2022-08-22T22:26:19.494Z,18.90
2022-08-22T22:28:48.633Z,18.83
2022-08-22T22:31:18.484Z,18.79
2022-08-22T22:33:46.793Z,18.73
2022-08-22T22:36:25.136Z,18.74
2022-08-22T22:38:53.826Z,18.70
2022-08-22T22:41:25.932Z,18.70
2022-08-22T22:43:55.179Z,18.74
2022-08-22T22:46:23.788Z,18.69
2022-08-22T22:48:51.818Z,18.67
2022-08-22T22:51:19.852Z,18.63
2022-08-22T22:53:47.761Z,18.56
2022-08-22T22:56:21.530Z,18.55
2022-08-22T22:59:00.745Z,18.45
2022-08-22T23:01:31.686Z,18.46
2022-08-22T23:04:05.504Z,18.45
2022-08-22T23:06:35.449Z,18.41
2022-08-22T23:09:03.688Z,18.37
2022-08-22T23:11:32.315Z,18.34
2022-08-22T23:14:02.748Z,18.32
2022-08-22T23:16:35.197Z,18.34
2022-08-22T23:19:09.380Z,18.34
2022-08-22T23:21:37.684Z,18.31
2022-08-22T23:24:06.924Z,18.28
2022-08-22T23:26:36.047Z,18.21
2022-08-22T23:29:06.048Z,18.17
2022-08-22T23:31:41.595Z,18.14
2022-08-22T23:34:12.379Z,18.07
2022-08-22T23:36:42.459Z,18.02
2022-08-22T23:39:12.411Z,17.97
2022-08-22T23:41:41.242Z,17.93
2022-08-22T23:44:13.655Z,17.94
2022-08-22T23:46:43.031Z,17.91
2022-08-22T23:49:11.886Z,17.89
2022-08-22T23:51:40.064Z,17.86
2022-08-22T23:54:09.078Z,17.83
2022-08-22T23:56:40.295Z,17.79
2022-08-22T23:59:13.060Z,17.74
